Terminal Aerodrome Forecast
Issued by NWS Knoxville/Tri Cities, TN

Current Version | Previous Version | Text Only | Print | Product List | Glossary On
Versions: 1 2 3 4 5 6 7 8 9 10 11 12 13 14 15 16 17
000
FTUS44 KMRX 211720
TAFTRI
TAF
KTRI 211720Z 2118/2218 15006KT P6SM SCT060 OVC200
     FM220400 VRB02KT P6SM VCSH BKN050
     FM220800 VRB02KT 2SM -SHRA OVC020
     FM221600 10002KT 4SM -SHRA OVC015=

USA.gov is the U.S. government's official web portal to all federal, state and local government web resources and services.